Buchtel, Ohio
Current Conditions -  °F | °C
As of 8:50 AM on Thursday 29 Jan 2015 (Local Time) from KUNI Reporting Station
Unknown Precip Unknown Precip  
Wind Chill: 27°   Ceiling: 5500
Heat Index: 32°   Visibility: 5mi
Dew Point: 23°   Wind: 5mph
Humidity: 70%   Direction: 170°S
Pressure: 29.96"   Gusts: NA
Location:  39.46°N, 82.18°W
Report Text: KUNI 291350Z AUTO 17004KT 5SM UP SCT040 SCT045 OVC055 00/M05 A2996 RMK AO2 P0001 T10021051
Loading
Personal Weather Stations






























Interactive Weather Map New forecast layout! Learn more

10-Day Weather Forecast

Advertisements
Track Severe Weather on mobile